createdAt,value
2018-09-24T00:00:24.374Z,22.86
2018-09-24T00:00:55.976Z,22.94
2018-09-24T00:01:27.572Z,22.94
2018-09-24T00:01:59.188Z,22.93
2018-09-24T00:02:30.790Z,22.95
2018-09-24T00:03:02.395Z,22.97
2018-09-24T00:03:33.992Z,22.97
2018-09-24T00:04:05.571Z,22.97
2018-09-24T00:04:37.174Z,22.97
2018-09-24T00:05:08.772Z,22.96
2018-09-24T00:05:40.351Z,22.98
2018-09-24T00:06:11.944Z,22.97
2018-09-24T00:06:43.552Z,22.88
2018-09-24T00:07:15.135Z,22.96
2018-09-24T00:07:46.730Z,22.94
2018-09-24T00:08:18.320Z,22.93
2018-09-24T00:08:49.902Z,22.94
2018-09-24T00:09:21.487Z,22.93
2018-09-24T00:09:53.090Z,22.91
2018-09-24T00:10:24.688Z,22.91
2018-09-24T00:10:56.271Z,22.91
2018-09-24T00:11:27.876Z,22.90
2018-09-24T00:11:59.496Z,22.90
2018-09-24T00:12:31.117Z,22.90
2018-09-24T00:13:02.713Z,22.90
2018-09-24T00:13:34.304Z,22.90
2018-09-24T00:14:05.911Z,22.89
2018-09-24T00:14:37.509Z,22.81
2018-09-24T00:15:09.123Z,22.90
2018-09-24T00:15:40.726Z,22.90
2018-09-24T00:16:12.310Z,22.91
2018-09-24T00:16:43.966Z,22.91
2018-09-24T00:17:15.569Z,22.90
2018-09-24T00:17:47.162Z,22.90
2018-09-24T00:18:18.739Z,22.90
2018-09-24T00:18:50.343Z,22.88
2018-09-24T00:19:21.936Z,22.90
2018-09-24T00:19:53.533Z,22.90
2018-09-24T00:20:25.134Z,22.90
2018-09-24T00:20:56.720Z,22.90
2018-09-24T00:21:28.314Z,22.80
2018-09-24T00:21:59.946Z,22.90
2018-09-24T00:22:31.540Z,22.90
2018-09-24T00:23:03.134Z,22.91
2018-09-24T00:23:34.731Z,22.91
2018-09-24T00:24:06.347Z,22.90
2018-09-24T00:24:37.941Z,22.89
2018-09-24T00:25:09.538Z,22.89
2018-09-24T00:25:41.136Z,22.89
2018-09-24T00:26:12.766Z,22.90
2018-09-24T00:26:44.370Z,22.91
2018-09-24T00:27:15.992Z,22.90
2018-09-24T00:27:47.589Z,22.91
2018-09-24T00:28:19.188Z,22.91
2018-09-24T00:28:50.780Z,22.90
2018-09-24T00:29:22.388Z,22.88
2018-09-24T00:29:53.990Z,22.88
2018-09-24T00:30:25.595Z,22.86
2018-09-24T00:30:57.202Z,22.88
2018-09-24T00:31:28.801Z,22.88
2018-09-24T00:32:00.438Z,22.89
2018-09-24T00:32:32.034Z,22.89
2018-09-24T00:33:03.638Z,22.89
2018-09-24T00:33:35.228Z,22.89
2018-09-24T00:34:06.830Z,22.89
2018-09-24T00:34:38.429Z,22.90
2018-09-24T00:35:10.016Z,22.91
2018-09-24T00:35:41.609Z,22.90
2018-09-24T00:36:13.209Z,22.89
2018-09-24T00:36:44.801Z,22.88
2018-09-24T00:37:16.434Z,22.89
2018-09-24T00:37:48.039Z,22.89
2018-09-24T00:38:19.643Z,22.87
2018-09-24T00:38:51.246Z,22.89
2018-09-24T00:39:22.854Z,22.88
2018-09-24T00:39:54.458Z,22.88
2018-09-24T00:40:26.056Z,22.88
2018-09-24T00:40:57.662Z,22.89
2018-09-24T00:41:29.243Z,22.89
2018-09-24T00:42:00.865Z,22.89
2018-09-24T00:42:32.456Z,22.87
2018-09-24T00:43:04.092Z,22.89
2018-09-24T00:43:35.695Z,22.89
2018-09-24T00:44:07.303Z,22.88
2018-09-24T00:44:38.910Z,22.88
2018-09-24T00:45:10.503Z,22.90
2018-09-24T00:45:42.107Z,22.89
2018-09-24T00:46:13.726Z,22.89
2018-09-24T00:46:45.319Z,22.89
2018-09-24T00:47:16.898Z,22.89
2018-09-24T00:47:49.176Z,22.89
2018-09-24T00:48:20.772Z,22.88
2018-09-24T00:48:52.364Z,22.87
2018-09-24T00:49:23.956Z,22.88
2018-09-24T00:49:55.548Z,22.88
2018-09-24T00:50:27.141Z,22.88
2018-09-24T00:50:58.747Z,22.87
2018-09-24T00:51:30.362Z,22.88
2018-09-24T00:52:01.943Z,22.89
2018-09-24T00:52:33.539Z,22.89
2018-09-24T00:53:05.151Z,22.88
2018-09-24T00:53:36.763Z,22.86
2018-09-24T00:54:08.368Z,22.87
2018-09-24T00:54:39.964Z,22.87
2018-09-24T00:55:11.558Z,22.87
2018-09-24T00:55:43.170Z,22.86
2018-09-24T00:56:14.769Z,22.86
2018-09-24T00:56:46.366Z,22.83
2018-09-24T00:57:17.971Z,22.87
2018-09-24T00:57:49.580Z,22.87
2018-09-24T00:58:21.190Z,22.87
2018-09-24T00:58:52.795Z,22.88
2018-09-24T00:59:24.403Z,22.88
2018-09-24T00:59:55.999Z,22.91
2018-09-24T01:00:27.592Z,22.92
2018-09-24T01:00:59.190Z,22.92
2018-09-24T01:01:30.807Z,22.93
2018-09-24T01:02:02.409Z,22.92
2018-09-24T01:02:34.050Z,22.93
2018-09-24T01:03:05.640Z,22.92
2018-09-24T01:03:37.235Z,22.92
2018-09-24T01:04:08.960Z,22.92
2018-09-24T01:04:40.567Z,22.92
2018-09-24T01:05:12.178Z,22.92
2018-09-24T01:05:43.783Z,22.92
2018-09-24T01:06:15.443Z,22.94
2018-09-24T01:06:47.036Z,22.94
2018-09-24T01:07:18.652Z,22.95
2018-09-24T01:07:50.259Z,22.95
2018-09-24T01:08:21.856Z,22.94
2018-09-24T01:08:53.459Z,22.94
2018-09-24T01:09:25.056Z,22.94
2018-09-24T01:09:56.645Z,22.94
2018-09-24T01:10:28.232Z,22.94
2018-09-24T01:10:59.831Z,22.94
2018-09-24T01:11:31.439Z,22.93
2018-09-24T01:12:03.046Z,22.93
2018-09-24T01:12:34.664Z,22.93
2018-09-24T01:13:06.256Z,22.93
2018-09-24T01:13:37.862Z,22.93
2018-09-24T01:14:09.452Z,22.92
2018-09-24T01:14:41.047Z,22.91
2018-09-24T01:15:12.636Z,22.91
2018-09-24T01:15:44.248Z,22.91
2018-09-24T01:16:15.850Z,22.92
2018-09-24T01:16:47.430Z,22.90
2018-09-24T01:17:19.016Z,22.92
2018-09-24T01:17:50.637Z,22.90
2018-09-24T01:18:22.229Z,22.91
2018-09-24T01:18:53.824Z,22.91
2018-09-24T01:19:25.426Z,22.91
2018-09-24T01:19:57.017Z,22.91
2018-09-24T01:20:28.622Z,22.92
2018-09-24T01:21:00.217Z,22.90
2018-09-24T01:21:31.812Z,22.91
2018-09-24T01:22:03.400Z,22.91
2018-09-24T01:22:35.059Z,22.90
2018-09-24T01:23:06.662Z,22.91
2018-09-24T01:23:38.253Z,22.91
2018-09-24T01:24:09.840Z,22.91
2018-09-24T01:24:41.433Z,22.92
2018-09-24T01:25:13.052Z,22.92
2018-09-24T01:25:44.655Z,22.92
2018-09-24T01:26:16.258Z,22.92
2018-09-24T01:26:47.852Z,22.93
2018-09-24T01:27:19.447Z,22.93
2018-09-24T01:27:51.079Z,22.95
2018-09-24T01:28:22.672Z,22.95
2018-09-24T01:28:54.264Z,22.96
2018-09-24T01:29:25.866Z,22.97
2018-09-24T01:29:57.475Z,22.96
2018-09-24T01:30:29.070Z,22.98
2018-09-24T01:31:00.657Z,22.98
2018-09-24T01:31:32.244Z,22.99
2018-09-24T01:32:03.818Z,22.99
2018-09-24T01:32:35.440Z,22.99
2018-09-24T01:33:07.037Z,22.97
2018-09-24T01:33:38.632Z,22.98
2018-09-24T01:34:10.245Z,22.97
2018-09-24T01:34:41.850Z,22.97
2018-09-24T01:35:13.454Z,22.96
2018-09-24T01:35:45.036Z,22.95
2018-09-24T01:36:16.638Z,22.95
2018-09-24T01:36:48.251Z,22.94
2018-09-24T01:37:19.858Z,22.94
2018-09-24T01:37:51.479Z,22.95
2018-09-24T01:38:23.068Z,22.94
2018-09-24T01:38:54.670Z,22.95
2018-09-24T01:39:26.274Z,22.96
2018-09-24T01:39:57.877Z,22.95
2018-09-24T01:40:29.482Z,22.97
2018-09-24T01:41:01.076Z,22.97
2018-09-24T01:41:32.683Z,22.98
2018-09-24T01:42:04.280Z,22.98
2018-09-24T01:42:35.920Z,22.98
2018-09-24T01:43:07.532Z,22.98
2018-09-24T01:43:39.129Z,22.98
2018-09-24T01:44:10.707Z,22.97
2018-09-24T01:44:42.300Z,22.97
2018-09-24T01:45:13.897Z,22.96
2018-09-24T01:45:45.492Z,22.96
2018-09-24T01:46:17.098Z,22.96
2018-09-24T01:46:48.697Z,22.95
2018-09-24T01:47:20.279Z,22.95
2018-09-24T01:47:51.915Z,22.94
2018-09-24T01:48:23.517Z,22.93
2018-09-24T01:48:55.127Z,22.92
2018-09-24T01:49:26.732Z,22.92
2018-09-24T01:49:58.324Z,22.92
2018-09-24T01:50:29.919Z,22.90
2018-09-24T01:51:01.499Z,22.93
2018-09-24T01:51:33.088Z,22.92
2018-09-24T01:52:04.688Z,22.92
2018-09-24T01:52:36.280Z,22.91
2018-09-24T01:53:07.900Z,22.91
2018-09-24T01:53:39.503Z,22.91
2018-09-24T01:54:11.101Z,22.90
2018-09-24T01:54:42.693Z,22.91
2018-09-24T01:55:14.278Z,22.91
2018-09-24T01:55:45.863Z,22.90
2018-09-24T01:56:17.443Z,22.88
2018-09-24T01:56:49.036Z,22.89
2018-09-24T01:57:20.628Z,22.89
2018-09-24T01:57:52.266Z,22.89
2018-09-24T01:58:23.870Z,22.89
2018-09-24T01:58:55.482Z,22.90
2018-09-24T01:59:27.099Z,22.89
2018-09-24T01:59:58.679Z,22.89
2018-09-24T02:00:30.260Z,22.88
2018-09-24T02:01:01.855Z,22.89
2018-09-24T02:01:33.462Z,22.89
2018-09-24T02:02:05.053Z,22.88
2018-09-24T02:02:36.654Z,22.88
2018-09-24T02:03:08.258Z,22.89
2018-09-24T02:03:39.862Z,22.90
2018-09-24T02:04:11.466Z,22.88
2018-09-24T02:04:43.061Z,22.91
2018-09-24T02:05:14.661Z,22.91
2018-09-24T02:05:46.263Z,22.91
2018-09-24T02:06:17.865Z,22.80
2018-09-24T02:06:49.484Z,22.89
2018-09-24T02:07:21.086Z,22.89
2018-09-24T02:07:52.702Z,22.88
2018-09-24T02:08:24.334Z,22.89
2018-09-24T02:08:55.942Z,22.90
2018-09-24T02:09:27.551Z,22.91
2018-09-24T02:09:59.154Z,22.93
2018-09-24T02:10:30.754Z,22.93
2018-09-24T02:11:02.346Z,22.94
2018-09-24T02:11:33.923Z,22.93
2018-09-24T02:12:05.533Z,22.94
2018-09-24T02:12:37.112Z,22.93
2018-09-24T02:13:08.714Z,22.93
2018-09-24T02:13:40.337Z,22.93
2018-09-24T02:14:11.932Z,22.94
2018-09-24T02:14:43.524Z,22.94
2018-09-24T02:15:15.122Z,22.93
2018-09-24T02:15:46.747Z,22.93
2018-09-24T02:16:18.348Z,22.92
2018-09-24T02:16:49.953Z,22.91
2018-09-24T02:17:21.550Z,22.91
2018-09-24T02:17:53.140Z,22.93
2018-09-24T02:18:24.756Z,22.93
2018-09-24T02:18:56.366Z,22.93
2018-09-24T02:19:27.962Z,22.93
2018-09-24T02:19:59.570Z,22.90
2018-09-24T02:20:31.173Z,22.92
2018-09-24T02:21:02.765Z,22.93
2018-09-24T02:21:34.404Z,22.92
2018-09-24T02:22:05.992Z,22.92
2018-09-24T02:22:37.580Z,22.92
2018-09-24T02:23:09.172Z,22.92
2018-09-24T02:23:40.803Z,22.91
2018-09-24T02:24:12.411Z,22.92
2018-09-24T02:24:44.013Z,22.90
2018-09-24T02:25:15.611Z,22.91
2018-09-24T02:25:47.215Z,22.90
2018-09-24T02:26:18.823Z,22.90
2018-09-24T02:26:50.476Z,22.90
2018-09-24T02:27:22.070Z,22.90
2018-09-24T02:27:53.664Z,22.90
2018-09-24T02:28:25.430Z,22.91
2018-09-24T02:28:57.038Z,22.91
2018-09-24T02:29:28.648Z,22.91
2018-09-24T02:30:00.246Z,22.91
2018-09-24T02:30:31.855Z,22.91
2018-09-24T02:31:03.449Z,22.90
2018-09-24T02:31:35.040Z,22.91
2018-09-24T02:32:06.632Z,22.91
2018-09-24T02:32:38.206Z,22.91
2018-09-24T02:33:09.796Z,22.92
2018-09-24T02:33:41.750Z,22.91
2018-09-24T02:34:13.541Z,22.92
2018-09-24T02:34:45.609Z,22.91
2018-09-24T02:35:17.239Z,22.81
2018-09-24T02:35:48.819Z,22.89
2018-09-24T02:36:20.413Z,22.89
2018-09-24T02:36:52.013Z,22.89
2018-09-24T02:37:23.610Z,22.88
2018-09-24T02:37:55.200Z,22.88
2018-09-24T02:38:26.806Z,22.87
2018-09-24T02:38:58.446Z,22.85
2018-09-24T02:39:30.049Z,22.85
2018-09-24T02:40:01.674Z,22.84
2018-09-24T02:40:33.285Z,22.84
2018-09-24T02:41:04.894Z,22.93
2018-09-24T02:41:36.484Z,23.03
2018-09-24T02:42:08.079Z,23.03
2018-09-24T02:42:39.668Z,23.00
2018-09-24T02:43:11.257Z,22.95
2018-09-24T02:43:42.877Z,22.90
2018-09-24T02:44:14.484Z,22.83
2018-09-24T02:44:46.527Z,22.77
2018-09-24T02:45:18.126Z,22.72
2018-09-24T02:45:49.734Z,22.66
2018-09-24T02:46:21.332Z,22.61
2018-09-24T02:46:52.929Z,22.61
2018-09-24T02:47:24.517Z,22.57
2018-09-24T02:47:56.109Z,22.51
2018-09-24T02:48:27.688Z,22.47
2018-09-24T02:48:59.305Z,22.45
2018-09-24T02:49:30.898Z,22.45
2018-09-24T02:50:02.493Z,22.49
2018-09-24T02:50:34.111Z,22.56
2018-09-24T02:51:05.690Z,22.65
2018-09-24T02:51:37.276Z,22.69
2018-09-24T02:52:08.882Z,22.75
2018-09-24T02:52:40.486Z,22.76
2018-09-24T02:53:12.090Z,22.56
2018-09-24T02:53:43.713Z,22.38
2018-09-24T02:54:15.305Z,22.24
2018-09-24T02:54:46.915Z,21.92
2018-09-24T02:55:18.558Z,21.78
2018-09-24T02:55:50.139Z,21.69
2018-09-24T02:56:21.743Z,21.59
2018-09-24T02:56:53.333Z,21.38
2018-09-24T02:57:24.943Z,21.35
2018-09-24T02:57:56.530Z,21.31
2018-09-24T02:58:28.135Z,21.13
2018-09-24T02:58:59.777Z,21.12
2018-09-24T02:59:31.367Z,21.11
2018-09-24T03:00:02.964Z,21.25
2018-09-24T03:00:34.546Z,21.40
2018-09-24T03:01:06.184Z,21.53
2018-09-24T03:01:37.777Z,21.66
2018-09-24T03:02:09.372Z,21.76
2018-09-24T03:02:40.979Z,21.84
2018-09-24T03:03:12.578Z,21.93
2018-09-24T03:03:44.168Z,21.97
2018-09-24T03:04:15.810Z,22.05
2018-09-24T03:04:47.418Z,22.10
2018-09-24T03:05:19.008Z,22.13
2018-09-24T03:05:50.618Z,22.16
2018-09-24T03:06:22.222Z,22.18
2018-09-24T03:06:53.820Z,22.20
2018-09-24T03:07:25.426Z,22.23
2018-09-24T03:07:57.020Z,22.23
2018-09-24T03:08:28.613Z,22.24
2018-09-24T03:09:00.236Z,22.25
2018-09-24T03:09:31.825Z,22.26
2018-09-24T03:10:03.416Z,22.26
2018-09-24T03:10:35.008Z,22.27
2018-09-24T03:11:06.614Z,22.28
2018-09-24T03:11:38.208Z,22.28
2018-09-24T03:12:09.826Z,22.29
2018-09-24T03:12:41.441Z,22.29
2018-09-24T03:13:13.037Z,22.29
2018-09-24T03:13:44.629Z,22.32
2018-09-24T03:14:16.216Z,22.32
2018-09-24T03:14:47.808Z,22.33
2018-09-24T03:15:19.416Z,22.35
2018-09-24T03:15:51.016Z,22.35
2018-09-24T03:16:22.608Z,22.37
2018-09-24T03:16:54.216Z,22.38
2018-09-24T03:17:25.816Z,22.40
2018-09-24T03:17:57.404Z,22.41
2018-09-24T03:18:29.011Z,22.42
2018-09-24T03:19:00.604Z,22.45
2018-09-24T03:19:32.210Z,22.46
2018-09-24T03:20:03.825Z,22.45
2018-09-24T03:20:35.430Z,22.49
2018-09-24T03:21:07.024Z,22.50
2018-09-24T03:21:38.617Z,22.52
2018-09-24T03:22:10.217Z,22.53
2018-09-24T03:22:41.827Z,22.55
2018-09-24T03:23:13.431Z,22.55
2018-09-24T03:23:45.035Z,22.56
2018-09-24T03:24:16.620Z,22.57
2018-09-24T03:24:48.233Z,22.58
2018-09-24T03:25:19.844Z,22.59
2018-09-24T03:25:51.445Z,22.59
2018-09-24T03:26:23.064Z,22.60
2018-09-24T03:26:54.659Z,22.60
2018-09-24T03:27:26.262Z,22.59
2018-09-24T03:27:57.857Z,22.61
2018-09-24T03:28:29.448Z,22.62
2018-09-24T03:29:01.051Z,22.63
2018-09-24T03:29:32.691Z,22.65
2018-09-24T03:30:04.264Z,22.65
2018-09-24T03:30:35.862Z,22.65
2018-09-24T03:31:07.467Z,22.66
2018-09-24T03:31:39.082Z,22.66
2018-09-24T03:32:10.688Z,22.66
2018-09-24T03:32:42.295Z,22.67
2018-09-24T03:33:13.898Z,22.68
2018-09-24T03:33:45.496Z,22.67
2018-09-24T03:34:17.084Z,22.68
2018-09-24T03:34:48.690Z,22.68
2018-09-24T03:35:20.296Z,22.68
2018-09-24T03:35:51.907Z,22.68
2018-09-24T03:36:23.503Z,22.68
2018-09-24T03:36:55.119Z,22.68
2018-09-24T03:37:26.714Z,22.68
2018-09-24T03:37:58.295Z,22.68
2018-09-24T03:38:29.898Z,22.67
2018-09-24T03:39:01.503Z,22.68
2018-09-24T03:39:33.124Z,22.67
2018-09-24T03:40:04.703Z,22.67
2018-09-24T03:40:36.282Z,22.67
2018-09-24T03:41:07.886Z,22.67
2018-09-24T03:41:39.501Z,22.67
2018-09-24T03:42:11.096Z,22.66
2018-09-24T03:42:42.703Z,22.66
2018-09-24T03:43:14.301Z,22.66
2018-09-24T03:43:45.906Z,22.66
2018-09-24T03:44:17.501Z,22.65
2018-09-24T03:44:49.119Z,22.64
2018-09-24T03:45:20.712Z,22.63
2018-09-24T03:45:52.308Z,22.64
2018-09-24T03:46:23.938Z,22.63
2018-09-24T03:46:55.533Z,22.63
2018-09-24T03:47:27.140Z,22.63
2018-09-24T03:47:58.736Z,22.63
2018-09-24T03:48:30.334Z,22.62
2018-09-24T03:49:01.914Z,22.60
2018-09-24T03:49:33.541Z,22.60
2018-09-24T03:50:05.148Z,22.61
2018-09-24T03:50:36.744Z,22.61
2018-09-24T03:51:08.356Z,22.60
2018-09-24T03:51:39.962Z,22.60
2018-09-24T03:52:11.556Z,22.58
2018-09-24T03:52:43.163Z,22.58
2018-09-24T03:53:14.756Z,22.58
2018-09-24T03:53:46.358Z,22.57
2018-09-24T03:54:17.967Z,22.56
2018-09-24T03:54:49.612Z,22.56
2018-09-24T03:55:21.212Z,22.55
2018-09-24T03:55:52.804Z,22.54
2018-09-24T03:56:24.386Z,22.53
2018-09-24T03:56:55.980Z,22.53
2018-09-24T03:57:27.587Z,22.52
2018-09-24T03:57:59.176Z,22.51
2018-09-24T03:58:30.779Z,22.50
2018-09-24T03:59:02.435Z,22.50
2018-09-24T03:59:33.992Z,22.50
2018-09-24T04:00:05.599Z,22.49
2018-09-24T04:00:37.192Z,22.48
2018-09-24T04:01:08.809Z,22.47
2018-09-24T04:01:40.403Z,22.46
2018-09-24T04:02:12.000Z,22.26
2018-09-24T04:02:43.607Z,22.45
2018-09-24T04:03:15.201Z,22.45
2018-09-24T04:03:46.788Z,22.45
2018-09-24T04:04:24.112Z,22.44
2018-09-24T04:05:01.323Z,22.43
2018-09-24T04:05:38.585Z,22.42
2018-09-24T04:06:15.842Z,22.41
2018-09-24T04:06:52.992Z,22.40
2018-09-24T04:07:30.209Z,22.39
2018-09-24T04:08:07.348Z,22.38
2018-09-24T04:08:44.449Z,22.37
2018-09-24T04:09:21.702Z,22.36
2018-09-24T04:09:59.029Z,22.36
2018-09-24T04:10:36.185Z,22.35
2018-09-24T04:11:13.420Z,22.34
2018-09-24T04:11:50.568Z,22.33
2018-09-24T04:12:27.727Z,22.33
2018-09-24T04:13:04.890Z,22.32
2018-09-24T04:13:42.123Z,22.32
2018-09-24T04:14:19.361Z,22.31
2018-09-24T04:14:56.622Z,22.29
2018-09-24T04:15:33.785Z,22.30
2018-09-24T04:16:11.005Z,22.29
2018-09-24T04:16:48.138Z,22.28
2018-09-24T04:17:25.387Z,22.27
2018-09-24T04:18:02.662Z,22.28
2018-09-24T04:18:39.972Z,22.27
2018-09-24T04:19:17.256Z,22.27
2018-09-24T04:19:54.511Z,22.26
2018-09-24T04:20:31.855Z,22.25
2018-09-24T04:21:09.093Z,22.24
2018-09-24T04:21:46.311Z,22.24
2018-09-24T04:22:23.494Z,22.24
2018-09-24T04:23:00.719Z,22.23
2018-09-24T04:23:37.985Z,22.23
2018-09-24T04:24:15.234Z,22.23
2018-09-24T04:24:52.453Z,22.20
2018-09-24T04:25:29.618Z,22.22
2018-09-24T04:26:06.808Z,22.21
2018-09-24T04:26:44.058Z,22.20
2018-09-24T04:27:21.206Z,22.19
2018-09-24T04:27:58.459Z,22.18
2018-09-24T04:28:35.604Z,22.19
2018-09-24T04:29:12.712Z,22.19
2018-09-24T04:29:49.900Z,22.18
2018-09-24T04:30:27.171Z,22.17
2018-09-24T04:31:04.493Z,22.17
2018-09-24T04:31:41.675Z,22.17
2018-09-24T04:32:18.888Z,22.16
2018-09-24T04:32:56.066Z,22.16
2018-09-24T04:33:33.292Z,22.16
2018-09-24T04:34:10.610Z,22.15
2018-09-24T04:34:47.786Z,22.16
2018-09-24T04:35:25.182Z,22.15
2018-09-24T04:36:02.446Z,22.15
2018-09-24T04:36:39.630Z,22.15
2018-09-24T04:37:16.892Z,22.15
2018-09-24T04:37:54.109Z,22.14
2018-09-24T04:38:31.336Z,22.14
2018-09-24T04:39:08.648Z,22.14
2018-09-24T04:39:45.880Z,22.13
2018-09-24T04:40:23.109Z,22.14
2018-09-24T04:41:00.385Z,22.14
2018-09-24T04:41:37.604Z,22.13
2018-09-24T04:42:14.748Z,22.13
2018-09-24T04:42:51.910Z,22.13
2018-09-24T04:43:29.163Z,22.10
2018-09-24T04:44:06.343Z,22.13
2018-09-24T04:44:43.634Z,22.12
2018-09-24T04:45:20.921Z,22.12
2018-09-24T04:45:58.155Z,22.11
2018-09-24T04:46:35.390Z,22.10
2018-09-24T04:47:12.661Z,22.11
2018-09-24T04:47:49.908Z,22.11
2018-09-24T04:48:27.119Z,22.09
2018-09-24T04:49:04.359Z,22.09
2018-09-24T04:49:41.643Z,22.10
2018-09-24T04:50:18.790Z,22.10
2018-09-24T04:50:55.925Z,22.10
2018-09-24T04:51:33.239Z,22.09
2018-09-24T04:52:10.629Z,22.09
2018-09-24T04:52:48.337Z,22.09
2018-09-24T04:53:26.097Z,22.09
2018-09-24T04:54:03.655Z,22.09
2018-09-24T04:54:40.770Z,22.09
2018-09-24T04:55:17.968Z,22.08
2018-09-24T04:55:55.183Z,22.09
2018-09-24T04:56:32.414Z,22.08
2018-09-24T04:57:09.595Z,22.07
2018-09-24T04:57:46.885Z,22.07
2018-09-24T04:58:24.218Z,22.07
2018-09-24T04:59:01.415Z,22.06
2018-09-24T04:59:38.653Z,22.06
2018-09-24T05:00:15.900Z,22.06
2018-09-24T05:00:53.011Z,22.05
2018-09-24T05:01:30.413Z,22.06
2018-09-24T05:02:07.552Z,22.05
2018-09-24T05:02:44.689Z,22.05
2018-09-24T05:03:22.121Z,22.06
2018-09-24T05:03:59.538Z,22.05
2018-09-24T05:04:36.760Z,22.06
2018-09-24T05:05:13.890Z,22.06
2018-09-24T05:05:51.137Z,22.06
2018-09-24T05:06:28.442Z,22.07
2018-09-24T05:07:05.723Z,22.08
2018-09-24T05:07:42.880Z,22.08
2018-09-24T05:08:20.011Z,22.09
2018-09-24T05:08:57.187Z,22.10
2018-09-24T05:09:34.291Z,22.11
2018-09-24T05:10:11.500Z,22.13
2018-09-24T05:10:48.702Z,22.14
2018-09-24T05:11:25.808Z,22.16
2018-09-24T05:12:02.916Z,22.18
2018-09-24T05:12:40.287Z,22.20
2018-09-24T05:13:17.326Z,22.22
2018-09-24T05:13:54.422Z,22.23
2018-09-24T05:14:31.705Z,22.26
2018-09-24T05:15:08.980Z,22.29
2018-09-24T05:15:46.104Z,22.30
2018-09-24T05:16:23.424Z,22.31
2018-09-24T05:17:00.653Z,22.31
2018-09-24T05:17:37.963Z,22.33
2018-09-24T05:18:15.197Z,22.33
2018-09-24T05:18:52.572Z,22.34
2018-09-24T05:19:29.897Z,22.35
2018-09-24T05:20:07.175Z,22.36
2018-09-24T05:20:44.412Z,22.37
2018-09-24T05:21:21.565Z,22.37
2018-09-24T05:21:58.812Z,22.37
2018-09-24T05:22:36.027Z,22.38
2018-09-24T05:23:13.114Z,22.39
2018-09-24T05:23:50.227Z,22.40
2018-09-24T05:24:27.367Z,22.40
2018-09-24T05:25:04.566Z,22.41
2018-09-24T05:25:41.810Z,22.42
2018-09-24T05:26:18.911Z,22.42
2018-09-24T05:26:56.122Z,22.42
2018-09-24T05:27:33.462Z,22.43
2018-09-24T05:28:10.612Z,22.43
2018-09-24T05:28:47.778Z,22.43
2018-09-24T05:29:24.883Z,22.43
2018-09-24T05:30:02.013Z,22.43
2018-09-24T05:30:39.227Z,22.43
2018-09-24T05:31:16.431Z,22.41
2018-09-24T05:31:53.704Z,22.43
2018-09-24T05:32:30.888Z,22.43
2018-09-24T05:33:08.093Z,22.43
2018-09-24T05:33:45.323Z,22.42
2018-09-24T05:34:22.590Z,22.42
2018-09-24T05:34:59.804Z,22.40
2018-09-24T05:35:37.067Z,22.41
2018-09-24T05:36:14.206Z,22.42
2018-09-24T05:36:51.292Z,22.41
2018-09-24T05:37:28.607Z,22.40
2018-09-24T05:38:05.803Z,22.41
2018-09-24T05:38:43.026Z,22.40
2018-09-24T05:39:20.278Z,22.40
2018-09-24T05:39:57.495Z,22.40
2018-09-24T05:40:34.681Z,22.40
2018-09-24T05:41:11.802Z,22.40
2018-09-24T05:41:49.166Z,22.40
2018-09-24T05:42:26.281Z,22.39
2018-09-24T05:43:03.480Z,22.39
2018-09-24T05:43:40.710Z,22.39
2018-09-24T05:44:17.935Z,22.38
2018-09-24T05:44:55.158Z,22.37
2018-09-24T05:45:32.330Z,22.37
2018-09-24T05:46:09.468Z,22.36
2018-09-24T05:46:46.616Z,22.36
2018-09-24T05:47:23.778Z,22.35
2018-09-24T05:48:01.029Z,22.34
2018-09-24T05:48:38.298Z,22.32
2018-09-24T05:49:15.523Z,22.34
2018-09-24T05:49:52.767Z,22.33
2018-09-24T05:50:29.904Z,22.33
2018-09-24T05:51:07.108Z,22.33
2018-09-24T05:51:44.310Z,22.32
2018-09-24T05:52:21.562Z,22.31
2018-09-24T05:52:58.725Z,22.30
2018-09-24T05:53:35.959Z,22.29
2018-09-24T05:54:13.222Z,22.29
2018-09-24T05:54:50.450Z,22.26
2018-09-24T05:55:27.703Z,22.27
2018-09-24T05:56:04.851Z,22.27
2018-09-24T05:56:42.012Z,22.25
2018-09-24T05:57:19.271Z,22.25
2018-09-24T05:57:56.485Z,22.24
2018-09-24T05:58:33.727Z,22.24
2018-09-24T05:59:10.863Z,22.23
2018-09-24T05:59:48.056Z,22.23
2018-09-24T06:00:25.276Z,22.21
2018-09-24T06:01:02.412Z,22.21
2018-09-24T06:01:39.582Z,22.20
2018-09-24T06:02:16.720Z,22.19
2018-09-24T06:02:54.002Z,22.18
2018-09-24T06:03:31.132Z,22.18
2018-09-24T06:04:08.225Z,22.18
2018-09-24T06:04:45.552Z,22.17
2018-09-24T06:05:22.813Z,22.16
2018-09-24T06:06:00.048Z,22.16
2018-09-24T06:06:37.223Z,22.15
2018-09-24T06:07:14.418Z,22.14
2018-09-24T06:07:51.667Z,22.15
2018-09-24T06:08:28.942Z,22.14
2018-09-24T06:09:06.112Z,22.13
2018-09-24T06:09:43.177Z,22.12
2018-09-24T06:10:20.368Z,22.12
2018-09-24T06:10:57.631Z,22.11
2018-09-24T06:11:34.854Z,22.10
2018-09-24T06:12:12.052Z,22.10
2018-09-24T06:12:49.243Z,22.09
2018-09-24T06:13:26.546Z,22.09
2018-09-24T06:14:03.774Z,22.07
2018-09-24T06:14:41.003Z,22.07
2018-09-24T06:15:18.323Z,22.07
2018-09-24T06:15:55.475Z,22.06
2018-09-24T06:16:32.718Z,22.06
2018-09-24T06:17:09.925Z,22.05
2018-09-24T06:17:47.063Z,22.05
2018-09-24T06:18:24.221Z,22.04
2018-09-24T06:19:01.455Z,22.04
2018-09-24T06:19:38.754Z,22.03
2018-09-24T06:20:16.068Z,22.03
2018-09-24T06:20:53.268Z,22.03
2018-09-24T06:21:30.435Z,22.02
2018-09-24T06:22:07.640Z,22.02
2018-09-24T06:22:44.860Z,22.00
2018-09-24T06:23:21.988Z,22.01
2018-09-24T06:23:59.194Z,22.00
2018-09-24T06:24:36.420Z,22.00
2018-09-24T06:25:13.491Z,21.99
2018-09-24T06:25:50.731Z,21.99
2018-09-24T06:26:27.909Z,21.98
2018-09-24T06:27:05.120Z,21.98
2018-09-24T06:27:42.300Z,21.96
2018-09-24T06:28:19.463Z,21.97
2018-09-24T06:28:56.659Z,21.97
2018-09-24T06:29:33.795Z,21.97
2018-09-24T06:30:11.051Z,21.97
2018-09-24T06:30:48.360Z,21.97
2018-09-24T06:31:25.522Z,21.97
2018-09-24T06:32:02.736Z,21.97
2018-09-24T06:32:39.870Z,21.97
2018-09-24T06:33:17.084Z,21.97
2018-09-24T06:33:54.352Z,21.97
2018-09-24T06:34:31.563Z,21.97
2018-09-24T06:35:08.790Z,21.96
2018-09-24T06:35:45.973Z,21.94
2018-09-24T06:36:23.227Z,21.94
2018-09-24T06:37:00.680Z,21.96
2018-09-24T06:37:38.054Z,21.95
2018-09-24T06:38:15.241Z,21.95
2018-09-24T06:38:52.492Z,21.94
2018-09-24T06:39:29.716Z,21.94
2018-09-24T06:40:07.038Z,21.93
2018-09-24T06:40:44.226Z,21.94
2018-09-24T06:41:21.781Z,21.94
2018-09-24T06:41:59.347Z,21.95
2018-09-24T06:42:37.253Z,21.95
2018-09-24T06:43:14.614Z,21.95
2018-09-24T06:43:52.312Z,21.95
2018-09-24T06:44:29.769Z,21.95
2018-09-24T06:45:07.025Z,21.95
2018-09-24T06:45:44.185Z,21.94
2018-09-24T06:46:21.340Z,21.95
2018-09-24T06:46:58.578Z,21.94
2018-09-24T06:47:35.755Z,21.95
2018-09-24T06:48:12.869Z,21.95
2018-09-24T06:48:50.089Z,21.96
2018-09-24T06:49:27.280Z,21.96
2018-09-24T06:50:04.609Z,21.97
2018-09-24T06:50:41.757Z,21.98
2018-09-24T06:51:19.095Z,21.98
2018-09-24T06:51:56.256Z,21.99
2018-09-24T06:52:33.410Z,22.01
2018-09-24T06:53:10.535Z,22.02
2018-09-24T06:53:47.682Z,22.04
2018-09-24T06:54:24.868Z,22.05
2018-09-24T06:55:02.084Z,22.06
2018-09-24T06:55:39.345Z,22.08
2018-09-24T06:56:16.475Z,22.09
2018-09-24T06:56:53.632Z,22.10
2018-09-24T06:57:30.874Z,22.12
2018-09-24T06:58:08.108Z,22.14
2018-09-24T06:58:45.410Z,22.15
2018-09-24T06:59:22.556Z,22.15
2018-09-24T06:59:59.799Z,22.16
2018-09-24T07:00:37.032Z,22.18
2018-09-24T07:01:14.272Z,22.20
2018-09-24T07:01:51.434Z,22.21
2018-09-24T07:02:28.659Z,22.22
2018-09-24T07:03:05.948Z,22.23
2018-09-24T07:03:43.293Z,22.23
2018-09-24T07:04:20.468Z,22.24
2018-09-24T07:04:57.730Z,22.25
2018-09-24T07:05:35.109Z,22.26
2018-09-24T07:06:12.299Z,22.26
2018-09-24T07:06:49.523Z,22.27
2018-09-24T07:07:26.719Z,22.28
2018-09-24T07:08:03.818Z,22.29
2018-09-24T07:08:40.904Z,22.30
2018-09-24T07:09:18.134Z,22.30
2018-09-24T07:09:55.303Z,22.30
2018-09-24T07:10:32.462Z,22.30
2018-09-24T07:11:09.818Z,22.30
2018-09-24T07:11:47.149Z,22.31
2018-09-24T07:12:24.368Z,22.32
2018-09-24T07:13:01.593Z,22.30
2018-09-24T07:13:38.953Z,22.33
2018-09-24T07:14:16.159Z,22.34
2018-09-24T07:14:53.322Z,22.34
2018-09-24T07:15:30.458Z,22.33
2018-09-24T07:16:07.686Z,22.33